createdAt,value
2022-08-22T00:01:25.184Z,57.00
2022-08-22T00:04:08.001Z,57.06
2022-08-22T00:07:03.223Z,57.37
2022-08-22T00:09:44.977Z,57.32
2022-08-22T00:12:27.561Z,57.58
2022-08-22T00:15:26.112Z,57.72
2022-08-22T00:18:22.908Z,57.57
2022-08-22T00:21:15.901Z,57.58
2022-08-22T00:24:17.680Z,57.76
2022-08-22T00:27:05.599Z,58.05
2022-08-22T00:29:44.997Z,57.88
2022-08-22T00:32:50.766Z,57.73
2022-08-22T00:35:23.449Z,57.86
2022-08-22T00:38:10.479Z,57.90
2022-08-22T00:41:14.311Z,58.06
2022-08-22T00:44:17.391Z,58.45
2022-08-22T00:47:10.827Z,58.41
2022-08-22T00:50:15.312Z,58.61
2022-08-22T00:53:19.922Z,58.89
2022-08-22T00:55:57.173Z,58.82
2022-08-22T00:58:55.703Z,58.68
2022-08-22T01:01:32.153Z,58.99
2022-08-22T01:04:33.040Z,58.92
2022-08-22T01:07:11.771Z,59.36
2022-08-22T01:10:04.485Z,59.24
2022-08-22T01:13:20.416Z,59.33
2022-08-22T01:15:50.773Z,58.87
2022-08-22T01:18:59.471Z,59.56
2022-08-22T01:22:26.553Z,59.66
2022-08-22T01:25:36.646Z,59.17
2022-08-22T01:28:41.096Z,59.60
2022-08-22T01:32:12.109Z,59.41
2022-08-22T01:35:02.240Z,59.46
2022-08-22T01:38:00.108Z,59.59
2022-08-22T01:41:06.767Z,59.42
2022-08-22T01:44:09.227Z,59.47
2022-08-22T01:47:13.929Z,59.11
2022-08-22T01:49:49.036Z,59.14
2022-08-22T01:52:43.316Z,59.30
2022-08-22T01:55:34.432Z,59.28
2022-08-22T01:58:18.971Z,59.29
2022-08-22T02:01:14.072Z,59.60
2022-08-22T02:04:05.915Z,59.41
2022-08-22T02:07:01.891Z,59.43
2022-08-22T02:09:39.462Z,59.53
2022-08-22T02:12:42.682Z,59.61
2022-08-22T02:15:30.163Z,60.28
2022-08-22T02:18:01.054Z,59.87
2022-08-22T02:21:16.594Z,60.07
2022-08-22T02:24:14.203Z,60.46
2022-08-22T02:27:05.580Z,60.56
2022-08-22T02:29:52.554Z,60.24
2022-08-22T02:32:37.237Z,60.66
2022-08-22T02:35:14.279Z,60.48
2022-08-22T02:38:24.230Z,60.60
2022-08-22T02:41:21.951Z,59.86
2022-08-22T02:43:57.963Z,60.17
2022-08-22T02:46:58.805Z,60.01
2022-08-22T02:50:14.388Z,59.97
2022-08-22T02:52:55.894Z,59.98
2022-08-22T02:55:38.254Z,60.10
2022-08-22T02:58:19.344Z,60.46
2022-08-22T03:00:50.548Z,60.47
2022-08-22T03:03:24.977Z,60.64
2022-08-22T03:06:01.807Z,60.34
2022-08-22T03:08:38.873Z,60.55
2022-08-22T03:11:32.305Z,59.95
2022-08-22T03:14:27.552Z,60.18
2022-08-22T03:17:18.404Z,60.16
2022-08-22T03:20:14.790Z,60.09
2022-08-22T03:22:57.403Z,60.56
2022-08-22T03:25:39.730Z,60.05
2022-08-22T03:28:20.862Z,60.65
2022-08-22T03:30:56.942Z,60.44
2022-08-22T03:33:30.918Z,60.48
2022-08-22T03:36:08.300Z,60.28
2022-08-22T03:38:36.322Z,60.57
2022-08-22T03:41:35.549Z,60.51
2022-08-22T03:44:34.435Z,60.32
2022-08-22T03:47:31.967Z,60.63
2022-08-22T03:50:28.584Z,60.49
2022-08-22T03:53:32.510Z,60.56
2022-08-22T03:56:38.888Z,60.35
2022-08-22T03:59:52.576Z,60.76
2022-08-22T04:02:42.928Z,60.18
2022-08-22T04:05:32.546Z,60.65
2022-08-22T04:08:45.122Z,60.32
2022-08-22T04:11:48.854Z,60.39
2022-08-22T04:14:49.601Z,60.99
2022-08-22T04:17:48.300Z,60.74
2022-08-22T04:20:43.038Z,61.04
2022-08-22T04:23:41.030Z,60.93
2022-08-22T04:26:17.492Z,61.18
2022-08-22T04:28:52.477Z,61.69
2022-08-22T04:31:27.884Z,61.74
2022-08-22T04:34:10.894Z,61.51
2022-08-22T04:36:55.937Z,61.61
2022-08-22T04:39:40.628Z,61.73
2022-08-22T04:42:32.557Z,61.63
2022-08-22T04:45:12.530Z,61.65
2022-08-22T04:47:54.870Z,61.35
2022-08-22T04:50:35.061Z,61.54
2022-08-22T04:53:16.868Z,61.44
2022-08-22T04:56:11.407Z,61.52
2022-08-22T04:59:04.634Z,61.68
2022-08-22T05:01:58.562Z,61.54
2022-08-22T05:04:46.452Z,61.42
2022-08-22T05:07:25.237Z,61.35
2022-08-22T05:10:20.239Z,61.59
2022-08-22T05:13:07.297Z,61.31
2022-08-22T05:15:37.909Z,61.63
2022-08-22T05:18:29.631Z,61.82
2022-08-22T05:21:02.203Z,61.65
2022-08-22T05:23:55.831Z,61.94
2022-08-22T05:26:23.208Z,61.94
2022-08-22T05:28:58.479Z,62.12
2022-08-22T05:31:31.130Z,61.59
2022-08-22T05:34:23.100Z,62.02
2022-08-22T05:37:00.021Z,62.32
2022-08-22T05:39:29.849Z,62.13
2022-08-22T05:42:00.776Z,62.31
2022-08-22T05:44:34.950Z,61.88
2022-08-22T05:47:21.458Z,62.37
2022-08-22T05:50:43.257Z,62.80
2022-08-22T05:53:28.467Z,63.09
2022-08-22T05:56:19.240Z,63.69
2022-08-22T05:58:54.868Z,63.70
2022-08-22T06:01:29.560Z,63.61
2022-08-22T06:04:32.000Z,64.12
2022-08-22T06:07:07.339Z,64.79
2022-08-22T06:09:46.389Z,65.25
2022-08-22T06:12:45.440Z,65.78
2022-08-22T06:15:23.019Z,65.58
2022-08-22T06:18:05.196Z,66.17
2022-08-22T06:20:43.566Z,66.16
2022-08-22T06:23:20.230Z,66.36
2022-08-22T06:25:49.860Z,66.35
2022-08-22T06:28:25.201Z,65.96
2022-08-22T06:30:55.662Z,66.16
2022-08-22T06:33:28.780Z,65.64
2022-08-22T06:36:21.633Z,66.06
2022-08-22T06:39:20.300Z,66.05
2022-08-22T06:42:16.699Z,66.13
2022-08-22T06:44:51.682Z,65.72
2022-08-22T06:47:37.728Z,65.47
2022-08-22T06:50:14.186Z,65.92
2022-08-22T06:53:00.788Z,64.99
2022-08-22T06:55:30.182Z,64.87
2022-08-22T06:58:03.961Z,64.36
2022-08-22T07:00:34.640Z,64.26
2022-08-22T07:03:16.192Z,63.22
2022-08-22T07:05:43.968Z,63.56
2022-08-22T07:08:19.892Z,62.83
2022-08-22T07:11:27.539Z,62.16
2022-08-22T07:14:00.867Z,61.64
2022-08-22T07:16:40.820Z,61.61
2022-08-22T07:19:10.515Z,62.02
2022-08-22T07:21:46.280Z,61.54
2022-08-22T07:24:24.485Z,61.61
2022-08-22T07:27:06.089Z,61.22
2022-08-22T07:30:01.207Z,60.51
2022-08-22T07:33:25.721Z,59.43
2022-08-22T07:36:00.637Z,58.71
2022-08-22T07:38:43.700Z,58.60
2022-08-22T07:41:53.944Z,58.43
2022-08-22T07:44:24.280Z,58.41
2022-08-22T07:47:00.971Z,57.90
2022-08-22T07:49:49.894Z,57.50
2022-08-22T07:52:18.010Z,57.25
2022-08-22T07:54:56.229Z,57.12
2022-08-22T07:57:38.767Z,56.71
2022-08-22T08:00:17.457Z,56.38
2022-08-22T08:02:53.072Z,56.56
2022-08-22T08:05:24.745Z,56.22
2022-08-22T08:07:55.632Z,56.24
2022-08-22T08:10:29.538Z,56.07
2022-08-22T08:13:12.735Z,55.07
2022-08-22T08:15:40.831Z,55.05
2022-08-22T08:18:21.914Z,54.54
2022-08-22T08:21:00.178Z,53.76
2022-08-22T08:23:32.033Z,54.13
2022-08-22T08:26:17.506Z,53.40
2022-08-22T08:28:58.173Z,52.95
2022-08-22T08:31:38.173Z,52.65
2022-08-22T08:34:22.442Z,52.36
2022-08-22T08:36:54.753Z,52.30
2022-08-22T08:39:37.393Z,52.30
2022-08-22T08:42:59.236Z,51.48
2022-08-22T08:46:14.289Z,50.96
2022-08-22T08:49:06.534Z,50.32
2022-08-22T08:52:18.255Z,50.81
2022-08-22T08:55:21.743Z,49.82
2022-08-22T08:58:33.715Z,49.33
2022-08-22T09:01:13.983Z,49.21
2022-08-22T09:07:53.456Z,49.11
2022-08-22T09:10:58.876Z,47.67
2022-08-22T09:13:47.251Z,48.00
2022-08-22T09:17:07.690Z,48.99
2022-08-22T09:20:03.011Z,47.84
2022-08-22T09:26:52.217Z,46.55
2022-08-22T09:30:11.827Z,46.24
2022-08-22T09:32:56.851Z,45.94
2022-08-22T09:36:13.215Z,44.62
2022-08-22T09:39:19.128Z,45.12
2022-08-22T09:42:15.522Z,44.81
2022-08-22T09:45:11.664Z,45.02
2022-08-22T09:47:58.406Z,44.65
2022-08-22T09:50:52.719Z,44.83
2022-08-22T09:53:43.399Z,45.02
2022-08-22T09:56:26.041Z,45.17
2022-08-22T09:59:22.407Z,44.86
2022-08-22T10:02:06.195Z,44.07
2022-08-22T10:05:13.752Z,44.20
2022-08-22T10:08:20.055Z,44.57
2022-08-22T10:11:22.878Z,44.56
2022-08-22T10:14:13.732Z,44.79
2022-08-22T10:16:49.225Z,44.35
2022-08-22T10:19:47.711Z,44.36
2022-08-22T10:22:47.272Z,43.99
2022-08-22T10:25:31.806Z,44.13
2022-08-22T10:28:41.972Z,43.82
2022-08-22T10:31:45.052Z,43.78
2022-08-22T10:34:43.348Z,42.67
2022-08-22T10:37:39.686Z,43.61
2022-08-22T10:40:44.027Z,43.51
2022-08-22T10:44:00.446Z,42.96
2022-08-22T10:46:51.896Z,42.21
2022-08-22T10:49:43.373Z,43.24
2022-08-22T10:52:21.901Z,42.68
2022-08-22T10:55:09.819Z,43.18
2022-08-22T10:58:01.898Z,43.43
2022-08-22T11:00:50.796Z,44.06
2022-08-22T11:03:40.252Z,43.98
2022-08-22T11:06:18.067Z,43.26
2022-08-22T11:09:16.997Z,41.83
2022-08-22T11:12:34.592Z,42.34
2022-08-22T11:15:43.507Z,41.79
2022-08-22T11:18:23.715Z,42.28
2022-08-22T11:21:12.134Z,41.82
2022-08-22T11:23:48.274Z,41.89
2022-08-22T11:26:46.985Z,41.94
2022-08-22T11:29:29.681Z,42.04
2022-08-22T11:32:25.633Z,41.93
2022-08-22T11:35:09.244Z,41.51
2022-08-22T11:37:42.981Z,42.02
2022-08-22T11:40:36.227Z,42.16
2022-08-22T11:43:32.481Z,41.63
2022-08-22T11:46:14.433Z,40.87
2022-08-22T11:49:09.040Z,40.53
2022-08-22T11:52:04.952Z,39.94
2022-08-22T11:54:40.130Z,39.41
2022-08-22T11:57:12.689Z,39.80
2022-08-22T11:59:43.145Z,38.69
2022-08-22T12:02:26.382Z,39.30
2022-08-22T12:04:59.676Z,39.74
2022-08-22T12:07:37.033Z,39.13
2022-08-22T12:10:18.143Z,39.06
2022-08-22T12:13:05.736Z,39.64
2022-08-22T12:16:06.203Z,39.19
2022-08-22T12:18:54.390Z,38.38
2022-08-22T12:21:51.542Z,38.93
2022-08-22T12:24:33.348Z,39.25
2022-08-22T12:27:28.866Z,38.79
2022-08-22T12:30:14.487Z,39.27
2022-08-22T12:33:10.539Z,39.83
2022-08-22T12:36:09.613Z,39.29
2022-08-22T12:39:18.420Z,39.73
2022-08-22T12:42:05.714Z,38.85
2022-08-22T12:45:05.792Z,39.47
2022-08-22T12:48:35.870Z,40.08
2022-08-22T12:51:35.183Z,39.34
2022-08-22T12:54:27.901Z,38.40
2022-08-22T12:57:24.501Z,39.37
2022-08-22T13:00:16.641Z,39.35
2022-08-22T13:02:54.155Z,39.19
2022-08-22T13:05:26.349Z,39.36
2022-08-22T13:08:04.529Z,39.65
2022-08-22T13:10:49.814Z,40.23
2022-08-22T13:13:36.531Z,38.94
2022-08-22T13:16:15.656Z,39.25
2022-08-22T13:18:59.273Z,39.82
2022-08-22T13:21:35.996Z,39.20
2022-08-22T13:24:16.647Z,38.99
2022-08-22T13:26:54.039Z,38.88
2022-08-22T13:29:39.368Z,39.10
2022-08-22T13:32:23.813Z,39.05
2022-08-22T13:34:56.333Z,39.27
2022-08-22T13:37:40.219Z,39.23
2022-08-22T13:40:14.448Z,38.65
2022-08-22T13:42:49.324Z,39.52
2022-08-22T13:45:28.624Z,39.02
2022-08-22T13:48:00.937Z,38.90
2022-08-22T13:50:35.883Z,39.69
2022-08-22T13:53:48.989Z,40.26
2022-08-22T13:56:39.809Z,39.90
2022-08-22T13:59:54.784Z,40.14
2022-08-22T14:02:52.182Z,40.15
2022-08-22T14:05:38.136Z,40.17
2022-08-22T14:08:25.878Z,40.00
2022-08-22T14:11:19.184Z,39.39
2022-08-22T14:13:59.337Z,40.13
2022-08-22T14:16:39.877Z,40.18
2022-08-22T14:19:12.186Z,40.06
2022-08-22T14:21:51.855Z,40.47
2022-08-22T14:24:31.248Z,40.74
2022-08-22T14:27:34.191Z,40.76
2022-08-22T14:30:16.164Z,40.61
2022-08-22T14:32:59.748Z,41.22
2022-08-22T14:35:35.139Z,41.07
2022-08-22T14:38:35.704Z,40.97
2022-08-22T14:41:28.632Z,41.29
2022-08-22T14:44:27.011Z,41.97
2022-08-22T14:47:01.925Z,42.15
2022-08-22T14:50:00.617Z,42.94
2022-08-22T14:52:53.196Z,42.99
2022-08-22T14:55:30.590Z,42.85
2022-08-22T14:58:03.448Z,43.18
2022-08-22T15:00:36.804Z,43.01
2022-08-22T15:03:12.991Z,42.81
2022-08-22T15:06:09.926Z,42.96
2022-08-22T15:08:49.681Z,43.04
2022-08-22T15:11:20.913Z,43.38
2022-08-22T15:14:07.316Z,43.43
2022-08-22T15:16:52.160Z,43.14
2022-08-22T15:19:44.452Z,42.88
2022-08-22T15:22:21.895Z,43.03
2022-08-22T15:25:26.906Z,42.96
2022-08-22T15:28:05.783Z,43.15
2022-08-22T15:30:45.612Z,43.48
2022-08-22T15:33:16.493Z,43.64
2022-08-22T15:35:45.475Z,43.90
2022-08-22T15:38:48.135Z,43.30
2022-08-22T15:41:36.703Z,43.24
2022-08-22T15:44:30.589Z,43.72
2022-08-22T15:47:13.465Z,44.16
2022-08-22T15:50:02.714Z,44.18
2022-08-22T15:52:59.642Z,43.79
2022-08-22T15:55:34.435Z,43.54
2022-08-22T15:58:12.975Z,43.50
2022-08-22T16:01:05.566Z,43.78
2022-08-22T16:04:04.599Z,44.32
2022-08-22T16:06:49.174Z,44.53
2022-08-22T16:09:50.416Z,44.20
2022-08-22T16:12:45.701Z,44.65
2022-08-22T16:15:55.720Z,44.50
2022-08-22T16:18:39.430Z,44.83
2022-08-22T16:21:22.091Z,44.86
2022-08-22T16:23:53.592Z,44.36
2022-08-22T16:26:24.956Z,44.35
2022-08-22T16:29:12.374Z,44.72
2022-08-22T16:31:44.473Z,45.17
2022-08-22T16:34:17.218Z,45.14
2022-08-22T16:37:08.695Z,45.34
2022-08-22T16:39:42.001Z,45.24
2022-08-22T16:42:15.627Z,45.65
2022-08-22T16:45:02.303Z,46.04
2022-08-22T16:47:36.130Z,46.13
2022-08-22T16:50:18.406Z,46.42
2022-08-22T16:53:01.200Z,47.08
2022-08-22T16:55:31.055Z,47.62
2022-08-22T16:58:44.981Z,46.68
2022-08-22T17:01:41.321Z,46.67
2022-08-22T17:04:28.128Z,47.17
2022-08-22T17:07:09.727Z,47.66
2022-08-22T17:09:56.126Z,47.09
2022-08-22T17:13:10.176Z,47.82
2022-08-22T17:16:05.842Z,47.85
2022-08-22T17:18:57.830Z,48.05
2022-08-22T17:21:51.010Z,47.77
2022-08-22T17:24:34.482Z,47.32
2022-08-22T17:27:23.356Z,47.63
2022-08-22T17:30:09.607Z,47.87
2022-08-22T17:33:12.113Z,48.25
2022-08-22T17:36:26.327Z,48.69
2022-08-22T17:39:16.763Z,49.15
2022-08-22T17:42:00.283Z,49.48
2022-08-22T17:45:18.080Z,49.54
2022-08-22T17:47:54.260Z,50.62
2022-08-22T17:50:33.175Z,50.99
2022-08-22T17:53:16.256Z,51.57
2022-08-22T17:56:17.075Z,51.42
2022-08-22T17:59:01.048Z,52.58
2022-08-22T18:01:58.692Z,52.25
2022-08-22T18:04:43.361Z,52.22
2022-08-22T18:07:31.702Z,52.88
2022-08-22T18:10:21.657Z,52.80
2022-08-22T18:13:31.609Z,53.36
2022-08-22T18:16:16.391Z,54.11
2022-08-22T18:18:56.181Z,54.20
2022-08-22T18:21:33.150Z,53.89
2022-08-22T18:24:16.454Z,54.67
2022-08-22T18:26:58.484Z,54.72
2022-08-22T18:29:49.601Z,54.93
2022-08-22T18:32:35.660Z,55.27
2022-08-22T18:35:28.986Z,55.99
2022-08-22T18:38:19.808Z,55.83
2022-08-22T18:40:59.109Z,56.11
2022-08-22T18:43:44.490Z,55.64
2022-08-22T18:46:42.844Z,55.60
2022-08-22T18:49:19.521Z,55.76
2022-08-22T18:52:26.857Z,55.39
2022-08-22T18:55:43.752Z,55.80
2022-08-22T18:58:28.250Z,55.92
2022-08-22T19:01:15.715Z,56.11
2022-08-22T19:04:17.448Z,55.36
2022-08-22T19:07:05.445Z,55.68
2022-08-22T19:09:57.932Z,55.94
2022-08-22T19:13:02.268Z,55.62
2022-08-22T19:15:56.654Z,55.87
2022-08-22T19:18:44.783Z,55.72
2022-08-22T19:21:34.732Z,55.80
2022-08-22T19:24:29.666Z,55.50
2022-08-22T19:27:23.648Z,55.50
2022-08-22T19:29:56.275Z,56.23
2022-08-22T19:33:00.240Z,56.34
2022-08-22T19:35:44.141Z,56.72
2022-08-22T19:38:11.774Z,57.22
2022-08-22T19:40:44.702Z,57.87
2022-08-22T19:43:30.472Z,58.34
2022-08-22T19:46:00.990Z,58.56
2022-08-22T19:48:44.443Z,58.72
2022-08-22T19:51:32.015Z,59.01
2022-08-22T19:54:01.819Z,59.09
2022-08-22T19:57:15.699Z,59.04
2022-08-22T20:00:08.288Z,59.47
2022-08-22T20:03:32.430Z,59.07
2022-08-22T20:06:40.683Z,58.94
2022-08-22T20:09:25.328Z,58.32
2022-08-22T20:12:01.330Z,58.07
2022-08-22T20:14:35.276Z,57.81
2022-08-22T20:17:38.455Z,58.15
2022-08-22T20:20:24.010Z,57.79
2022-08-22T20:23:29.726Z,58.18
2022-08-22T20:25:57.726Z,57.44
2022-08-22T20:28:33.244Z,57.37
2022-08-22T20:31:06.350Z,57.72
2022-08-22T20:33:38.308Z,58.07
2022-08-22T20:36:16.643Z,58.12
2022-08-22T20:39:01.167Z,57.75
2022-08-22T20:41:40.896Z,58.00
2022-08-22T20:44:18.548Z,57.53
2022-08-22T20:47:04.652Z,57.72
2022-08-22T20:49:46.215Z,57.66
2022-08-22T20:52:33.736Z,57.14
2022-08-22T20:55:31.696Z,57.29
2022-08-22T20:58:03.919Z,57.62
2022-08-22T21:00:36.468Z,57.04
2022-08-22T21:03:12.912Z,57.17
2022-08-22T21:05:44.551Z,57.08
2022-08-22T21:08:21.196Z,56.78
2022-08-22T21:11:20.252Z,57.24
2022-08-22T21:13:47.712Z,56.83
2022-08-22T21:16:22.280Z,56.72
2022-08-22T21:18:54.011Z,57.40
2022-08-22T21:21:28.808Z,57.07
2022-08-22T21:24:02.488Z,57.49
2022-08-22T21:26:36.560Z,57.18
2022-08-22T21:29:18.740Z,57.61
2022-08-22T21:31:48.735Z,57.50
2022-08-22T21:34:32.352Z,57.88
2022-08-22T21:37:07.772Z,57.10
2022-08-22T21:39:45.164Z,57.17
2022-08-22T21:42:23.879Z,57.31
2022-08-22T21:45:00.115Z,57.91
2022-08-22T21:47:32.397Z,57.57
2022-08-22T21:50:25.889Z,57.56
2022-08-22T21:52:55.701Z,57.47
2022-08-22T21:55:42.976Z,58.02
2022-08-22T21:58:35.947Z,58.23
2022-08-22T22:01:30.551Z,58.07
2022-08-22T22:03:59.136Z,57.60
2022-08-22T22:06:27.368Z,57.69
2022-08-22T22:08:54.438Z,57.87
2022-08-22T22:11:21.405Z,57.58
2022-08-22T22:13:48.948Z,57.88
2022-08-22T22:16:25.524Z,57.66
2022-08-22T22:18:52.439Z,57.77
2022-08-22T22:21:19.561Z,57.89
2022-08-22T22:23:46.621Z,57.99
2022-08-22T22:26:14.263Z,58.03
2022-08-22T22:28:47.406Z,58.22
2022-08-22T22:31:16.327Z,57.79
2022-08-22T22:33:43.926Z,58.38
2022-08-22T22:36:23.085Z,58.51
2022-08-22T22:38:51.691Z,58.29
2022-08-22T22:41:20.366Z,58.36
2022-08-22T22:43:47.332Z,58.12
2022-08-22T22:46:14.236Z,58.42
2022-08-22T22:48:41.153Z,58.79
2022-08-22T22:51:11.080Z,58.63
2022-08-22T22:53:40.296Z,58.97
2022-08-22T22:56:14.153Z,59.33
2022-08-22T22:58:43.467Z,58.80
2022-08-22T23:01:23.685Z,59.77
2022-08-22T23:03:56.013Z,59.81
2022-08-22T23:06:27.774Z,59.89
2022-08-22T23:08:55.243Z,59.73
2022-08-22T23:11:31.395Z,59.94
2022-08-22T23:13:58.345Z,59.75
2022-08-22T23:16:28.212Z,59.91
2022-08-22T23:18:56.246Z,59.99
2022-08-22T23:21:30.287Z,59.81
2022-08-22T23:23:59.679Z,59.97
2022-08-22T23:26:27.792Z,60.05
2022-08-22T23:28:55.614Z,60.05
2022-08-22T23:31:43.149Z,59.62
2022-08-22T23:34:14.743Z,60.08
2022-08-22T23:36:45.925Z,59.72
2022-08-22T23:39:15.569Z,59.81
2022-08-22T23:41:43.257Z,60.03
2022-08-22T23:44:13.730Z,60.71
2022-08-22T23:46:42.051Z,60.33
2022-08-22T23:49:09.765Z,60.54
2022-08-22T23:51:37.029Z,61.09
2022-08-22T23:54:04.668Z,61.22
2022-08-22T23:56:49.628Z,61.25
2022-08-22T23:59:22.415Z,61.24
